Time;durP1;ratioP1;P1;durP2;ratioP2;P2;SDS_P1;SDS_P2;PMS_P1;PMS_P2;Temp;Humidity;BMP_temperature;BMP_pressure;BME280_temperature;BME280_humidity;BME280_pressure;Samples;Min_cycle;Max_cycle;Signal;HPM_P1;HPM_P2
2021/09/09 00:00:18;;;;;;;23.20;18.23;;;13.00;99.90;;;;;;5231046;28;20232;-65
2021/09/09 00:02:50;;;;;;;25.67;17.17;;;13.00;99.90;;;;;;5230214;28;20244;-64
2021/09/09 00:05:24;;;;;;;31.67;20.17;;;13.00;99.90;;;;;;5230533;28;20206;-66
2021/09/09 00:07:56;;;;;;;33.70;21.47;;;12.90;99.90;;;;;;5231170;28;20567;-68
2021/09/09 00:10:28;;;;;;;32.70;22.10;;;12.90;99.90;;;;;;5213723;28;20213;-66
2021/09/09 00:13:00;;;;;;;27.23;19.77;;;12.90;99.90;;;;;;5231412;28;20240;-65
2021/09/09 00:15:34;;;;;;;33.90;22.13;;;12.90;99.90;;;;;;5230869;28;20221;-65
2021/09/09 00:18:09;;;;;;;34.30;21.80;;;12.80;99.90;;;;;;5232315;28;20197;-66
2021/09/09 00:20:44;;;;;;;26.90;20.17;;;12.80;99.90;;;;;;5230086;28;20304;-64
2021/09/09 00:23:16;;;;;;;28.57;18.40;;;12.80;99.90;;;;;;5230416;28;20235;-67
2021/09/09 00:25:48;;;;;;;28.13;19.17;;;12.80;99.90;;;;;;5230036;28;20301;-66
2021/09/09 00:28:20;;;;;;;29.93;19.90;;;12.80;99.90;;;;;;5229955;28;20330;-66
2021/09/09 00:30:53;;;;;;;32.00;21.43;;;12.80;99.90;;;;;;5230848;28;20629;-67
2021/09/09 00:33:27;;;;;;;30.30;20.90;;;12.80;99.90;;;;;;5230448;28;20229;-63
2021/09/09 00:36:02;;;;;;;29.03;19.87;;;12.80;99.90;;;;;;5230609;28;20205;-63
2021/09/09 00:38:34;;;;;;;29.07;19.30;;;12.80;99.90;;;;;;5230349;28;20244;-63
2021/09/09 00:41:06;;;;;;;31.27;20.40;;;12.80;99.90;;;;;;5229659;28;20206;-64
2021/09/09 00:43:38;;;;;;;27.73;19.03;;;12.80;99.90;;;;;;5229423;28;20221;-65
2021/09/09 00:46:13;;;;;;;29.80;19.70;;;12.80;99.90;;;;;;5230935;28;20201;-65
2021/09/09 00:48:45;;;;;;;26.60;18.53;;;12.90;99.90;;;;;;5231462;28;20668;-69
2021/09/09 00:51:17;;;;;;;25.77;18.43;;;12.90;99.90;;;;;;5230503;28;20216;-66
2021/09/09 00:53:53;;;;;;;30.20;19.90;;;12.90;99.90;;;;;;5230601;28;20543;-66
2021/09/09 00:56:25;;;;;;;26.20;18.73;;;13.00;99.90;;;;;;5230552;28;20190;-63
2021/09/09 00:58:57;;;;;;;24.70;17.90;;;13.00;99.90;;;;;;5228719;28;20245;-65
2021/09/09 01:01:29;;;;;;;27.10;18.57;;;13.10;99.90;;;;;;5228988;28;20295;-67
2021/09/09 01:04:02;;;;;;;26.90;18.57;;;13.10;99.90;;;;;;5245558;28;20731;-67
2021/09/09 01:06:34;;;;;;;26.77;17.70;;;13.10;99.90;;;;;;5228544;28;20197;-63
2021/09/09 01:09:06;;;;;;;24.60;17.30;;;13.10;99.90;;;;;;5230017;28;20252;-65
2021/09/09 01:11:40;;;;;;;28.17;17.80;;;13.10;99.90;;;;;;5229867;28;20210;-67
2021/09/09 01:14:15;;;;;;;23.63;17.33;;;13.10;99.90;;;;;;5228772;28;20233;-65
2021/09/09 01:16:47;;;;;;;25.13;18.13;;;13.10;99.90;;;;;;5229678;28;20220;-67
2021/09/09 01:19:19;;;;;;;28.10;16.83;;;13.10;99.90;;;;;;5229804;28;20263;-65
2021/09/09 01:21:51;;;;;;;25.13;17.77;;;13.10;99.90;;;;;;5230372;28;20206;-67
2021/09/09 01:24:28;;;;;;;27.73;18.13;;;13.00;99.90;;;;;;5228968;28;20229;-65
2021/09/09 01:27:03;;;;;;;27.10;18.10;;;13.00;99.90;;;;;;5229766;28;20186;-64
2021/09/09 01:29:38;;;;;;;27.27;18.03;;;13.00;99.90;;;;;;5229973;28;20307;-65
2021/09/09 01:32:11;;;;;;;25.33;17.70;;;13.00;99.90;;;;;;5229765;28;20509;-66
2021/09/09 01:34:43;;;;;;;26.20;18.10;;;13.00;99.90;;;;;;5229424;28;20244;-67
2021/09/09 01:37:15;;;;;;;23.27;17.20;;;13.00;99.90;;;;;;5228413;28;20220;-66
2021/09/09 01:39:47;;;;;;;24.20;17.90;;;13.00;99.90;;;;;;5228953;28;20237;-68
2021/09/09 01:42:19;;;;;;;25.20;18.07;;;13.00;99.90;;;;;;5228116;28;20212;-64
2021/09/09 01:44:51;;;;;;;26.17;18.40;;;12.90;99.90;;;;;;5228353;28;20248;-63
2021/09/09 01:47:23;;;;;;;26.20;18.80;;;12.90;99.90;;;;;;5228096;28;20201;-66
2021/09/09 01:49:55;;;;;;;27.07;17.17;;;12.90;99.90;;;;;;5228486;28;20283;-68
2021/09/09 01:52:27;;;;;;;26.63;18.17;;;12.90;99.90;;;;;;5230922;28;20220;-63
2021/09/09 01:54:59;;;;;;;22.60;17.03;;;12.90;99.90;;;;;;5213685;28;20502;-67
2021/09/09 01:57:31;;;;;;;27.37;18.30;;;12.80;99.90;;;;;;5228991;28;20206;-66
2021/09/09 02:00:04;;;;;;;28.87;19.47;;;12.80;99.90;;;;;;5227340;28;20248;-67
2021/09/09 02:02:39;;;;;;;26.37;18.97;;;12.80;99.90;;;;;;5229080;28;20186;-66
2021/09/09 02:05:13;;;;;;;27.43;19.40;;;12.80;99.90;;;;;;5228068;28;20229;-63
2021/09/09 02:07:45;;;;;;;28.30;19.90;;;12.70;99.90;;;;;;5227977;28;20206;-68
2021/09/09 02:10:19;;;;;;;27.80;19.30;;;12.70;99.90;;;;;;5227925;28;20244;-66
2021/09/09 02:12:51;;;;;;;25.43;18.23;;;12.70;99.90;;;;;;5228712;28;20220;-67
2021/09/09 02:15:23;;;;;;;27.73;18.67;;;12.60;99.90;;;;;;5227818;28;20228;-68
2021/09/09 02:17:55;;;;;;;29.20;20.80;;;12.60;99.90;;;;;;5226632;28;20208;-64
2021/09/09 02:20:29;;;;;;;30.17;19.97;;;12.60;99.90;;;;;;5228396;28;20230;-66
2021/09/09 02:23:01;;;;;;;28.90;19.80;;;12.60;99.90;;;;;;5228023;28;20581;-66
2021/09/09 02:25:33;;;;;;;29.17;21.00;;;12.60;99.90;;;;;;5228376;28;20209;-64
2021/09/09 02:28:06;;;;;;;28.43;19.80;;;12.60;99.90;;;;;;5227310;28;20216;-65
2021/09/09 02:30:40;;;;;;;28.67;19.03;;;12.50;99.90;;;;;;5227797;28;20471;-69
2021/09/09 02:33:12;;;;;;;33.07;21.50;;;12.50;99.90;;;;;;5228451;28;20191;-63
2021/09/09 02:35:44;;;;;;;31.40;20.83;;;12.50;99.90;;;;;;5228452;28;20190;-67
2021/09/09 02:38:16;;;;;;;31.20;21.30;;;12.50;99.90;;;;;;5227616;28;20556;-66
2021/09/09 02:40:48;;;;;;;31.53;21.37;;;12.50;99.90;;;;;;5228283;28;20226;-63
2021/09/09 02:43:22;;;;;;;34.00;20.87;;;12.50;99.90;;;;;;5228824;28;20194;-68
2021/09/09 02:45:55;;;;;;;31.07;21.97;;;12.50;99.90;;;;;;5227487;28;20582;-66
2021/09/09 02:48:27;;;;;;;34.63;22.43;;;12.50;99.90;;;;;;5228280;28;20186;-66
2021/09/09 02:50:59;;;;;;;34.17;21.77;;;12.50;99.90;;;;;;5210968;28;20201;-66
2021/09/09 02:53:31;;;;;;;31.87;23.13;;;12.50;99.90;;;;;;5228787;28;20197;-65
2021/09/09 02:56:04;;;;;;;33.63;23.50;;;12.50;99.90;;;;;;5228042;28;20209;-64
2021/09/09 02:58:40;;;;;;;37.77;23.37;;;12.50;99.90;;;;;;5227307;28;20205;-64
2021/09/09 03:01:12;;;;;;;38.03;23.27;;;12.50;99.90;;;;;;5226959;28;20653;-64
2021/09/09 03:03:45;;;;;;;35.07;23.13;;;12.50;99.90;;;;;;5228467;28;20236;-68
2021/09/09 03:06:17;;;;;;;31.93;22.43;;;12.50;99.90;;;;;;5228589;28;20606;-63
2021/09/09 03:08:49;;;;;;;33.00;21.97;;;12.50;99.90;;;;;;5230256;28;20464;-64
2021/09/09 03:11:22;;;;;;;35.50;23.80;;;12.60;99.90;;;;;;5227295;28;20198;-68
2021/09/09 03:13:53;;;;;;;31.17;23.50;;;12.50;99.90;;;;;;5228224;28;20205;-67
2021/09/09 03:16:25;;;;;;;39.17;25.30;;;12.60;99.90;;;;;;5226861;28;20205;-65
2021/09/09 03:18:57;;;;;;;35.20;24.13;;;12.60;99.90;;;;;;5228266;28;20291;-63
2021/09/09 03:21:29;;;;;;;37.20;23.13;;;12.60;99.90;;;;;;5228322;28;20235;-69
2021/09/09 03:24:04;;;;;;;27.47;20.83;;;12.60;99.90;;;;;;5227208;28;20228;-68
2021/09/09 03:26:37;;;;;;;33.30;23.13;;;12.60;99.90;;;;;;5228024;28;20213;-69
2021/09/09 03:29:09;;;;;;;37.43;25.37;;;12.60;99.90;;;;;;5243698;28;20629;-62
2021/09/09 03:31:41;;;;;;;38.37;26.60;;;12.60;99.90;;;;;;5231945;28;20602;-63
2021/09/09 03:34:14;;;;;;;37.13;26.17;;;12.60;99.90;;;;;;5230664;28;20206;-63
2021/09/09 03:36:46;;;;;;;35.70;23.73;;;12.60;99.90;;;;;;5232685;28;20216;-65
2021/09/09 03:39:21;;;;;;;38.70;26.40;;;12.50;99.90;;;;;;5232196;28;20253;-66
2021/09/09 03:41:53;;;;;;;38.63;25.97;;;12.60;99.90;;;;;;5232449;28;20566;-69
2021/09/09 03:44:26;;;;;;;37.77;27.13;;;12.50;99.90;;;;;;5230830;28;20625;-69
2021/09/09 03:47:00;;;;;;;38.77;26.50;;;12.50;99.90;;;;;;5231591;28;20622;-66
2021/09/09 03:49:33;;;;;;;40.53;25.97;;;12.50;99.90;;;;;;5231543;28;20256;-66
2021/09/09 03:52:07;;;;;;;39.20;26.77;;;12.50;99.90;;;;;;5214128;28;20220;-65
2021/09/09 03:54:39;;;;;;;38.97;27.27;;;12.50;99.90;;;;;;5231432;28;20210;-66
2021/09/09 03:57:11;;;;;;;42.20;27.23;;;12.50;99.90;;;;;;5231366;28;20217;-69
2021/09/09 03:59:43;;;;;;;40.67;26.83;;;12.40;99.90;;;;;;5231424;28;20233;-67
2021/09/09 04:02:15;;;;;;;38.10;24.80;;;12.40;99.90;;;;;;5230359;28;20276;-65
2021/09/09 04:04:49;;;;;;;36.87;26.53;;;12.40;99.90;;;;;;5231607;28;20525;-66
2021/09/09 04:07:24;;;;;;;36.87;25.63;;;12.40;99.90;;;;;;5231812;28;20208;-67
2021/09/09 04:09:56;;;;;;;38.07;25.97;;;12.40;99.90;;;;;;5231505;28;20275;-69
2021/09/09 04:12:30;;;;;;;38.93;25.70;;;12.40;99.90;;;;;;5230279;28;20341;-68
2021/09/09 04:15:02;;;;;;;35.20;25.60;;;12.40;99.90;;;;;;5230262;28;20229;-65
2021/09/09 04:17:36;;;;;;;38.33;25.90;;;12.40;99.90;;;;;;5230375;28;20644;-66
2021/09/09 04:20:10;;;;;;;42.03;27.67;;;12.40;99.90;;;;;;5229889;28;20240;-65
2021/09/09 04:22:42;;;;;;;43.63;27.90;;;12.30;99.90;;;;;;5231023;28;20205;-66
2021/09/09 04:25:15;;;;;;;43.20;28.00;;;12.30;99.90;;;;;;5231060;28;20229;-67
2021/09/09 04:27:47;;;;;;;44.83;29.20;;;12.40;99.90;;;;;;5230523;28;20216;-66
2021/09/09 04:30:21;;;;;;;42.97;29.10;;;12.30;99.90;;;;;;5229662;28;20216;-66
2021/09/09 04:32:53;;;;;;;44.57;30.07;;;12.40;99.90;;;;;;5230950;28;20497;-68
2021/09/09 04:35:25;;;;;;;50.93;32.80;;;12.40;99.90;;;;;;5230557;28;20682;-68
2021/09/09 04:37:59;;;;;;;45.63;31.37;;;12.40;99.90;;;;;;5230705;28;20541;-67
2021/09/09 04:40:32;;;;;;;45.83;31.33;;;12.50;99.90;;;;;;5230071;28;20229;-64
2021/09/09 04:43:06;;;;;;;47.80;30.93;;;12.50;99.90;;;;;;5228808;28;20327;-68
2021/09/09 04:45:38;;;;;;;44.27;28.87;;;12.50;99.90;;;;;;5229310;28;20232;-71
2021/09/09 04:48:12;;;;;;;44.40;28.77;;;12.60;99.90;;;;;;5229895;28;20216;-63
2021/09/09 04:50:47;;;;;;;46.20;28.60;;;12.60;99.90;;;;;;5229781;28;20229;-64
2021/09/09 04:53:19;;;;;;;48.17;30.10;;;12.70;99.90;;;;;;5230341;28;20213;-65
2021/09/09 04:55:51;;;;;;;45.77;29.03;;;12.80;99.90;;;;;;5246135;28;20538;-67
2021/09/09 04:58:23;;;;;;;41.67;28.67;;;12.90;99.90;;;;;;5229220;28;20217;-60
2021/09/09 05:00:55;;;;;;;42.40;29.07;;;12.90;99.90;;;;;;5225903;28;20248;-62
2021/09/09 05:03:27;;;;;;;47.53;28.17;;;13.00;99.90;;;;;;5254611;28;20206;-58
2021/09/09 05:06:00;;;;;;;43.77;27.07;;;13.10;99.90;;;;;;5222684;28;20268;-62
2021/09/09 05:08:32;;;;;;;40.37;27.53;;;13.20;99.90;;;;;;5250644;28;20251;-66
2021/09/09 05:11:08;;;;;;;40.73;27.70;;;13.20;99.90;;;;;;5211526;28;20236;-65
2021/09/09 05:13:44;;;;;;;37.73;25.43;;;13.30;99.90;;;;;;5227635;28;20189;-66
2021/09/09 05:16:16;;;;;;;37.30;24.30;;;13.40;99.90;;;;;;5228816;28;20233;-59
2021/09/09 05:18:48;;;;;;;37.03;25.60;;;13.50;99.90;;;;;;5224421;28;20523;-62
2021/09/09 05:21:21;;;;;;;39.83;26.77;;;13.60;99.90;;;;;;5251159;28;20229;-64
2021/09/09 05:23:53;;;;;;;43.80;25.90;;;13.60;99.90;;;;;;5261547;28;20197;-62
2021/09/09 05:26:27;;;;;;;38.27;26.23;;;13.70;99.90;;;;;;5210612;28;20634;-65
2021/09/09 05:28:59;;;;;;;41.47;25.77;;;13.80;99.90;;;;;;5208035;28;20209;-64
2021/09/09 05:31:33;;;;;;;37.60;25.33;;;13.90;99.90;;;;;;5217311;28;20229;-62
2021/09/09 05:34:05;;;;;;;38.37;25.40;;;14.00;99.90;;;;;;5226382;28;20213;-62
2021/09/09 05:36:38;;;;;;;34.90;24.43;;;14.10;99.90;;;;;;5208020;28;20552;-61
2021/09/09 05:39:10;;;;;;;40.93;26.07;;;14.20;99.90;;;;;;5189708;28;20217;-58
2021/09/09 05:41:42;;;;;;;40.43;24.10;;;14.30;99.90;;;;;;5206034;28;20241;-64
2021/09/09 05:44:14;;;;;;;37.43;24.93;;;14.40;99.90;;;;;;5207287;28;20206;-65
2021/09/09 05:46:46;;;;;;;37.77;23.87;;;14.50;99.90;;;;;;5207308;28;20233;-64
2021/09/09 05:49:18;;;;;;;32.20;22.83;;;14.60;99.90;;;;;;5207525;28;20202;-62
2021/09/09 05:51:52;;;;;;;36.27;24.87;;;14.70;99.90;;;;;;5207177;28;20264;-65
2021/09/09 05:54:26;;;;;;;36.23;23.23;;;14.80;99.90;;;;;;5208109;28;20206;-65
2021/09/09 05:57:02;;;;;;;33.03;23.23;;;14.90;99.90;;;;;;5207435;28;20688;-66
2021/09/09 05:59:34;;;;;;;31.83;20.80;;;15.00;99.90;;;;;;5208296;28;20238;-66
2021/09/09 06:02:18;;;;;;;35.50;23.67;;;15.20;99.90;;;;;;5208101;28;20670;-66
2021/09/09 06:04:55;;;;;;;43.00;23.53;;;15.30;99.90;;;;;;5207848;28;20481;-64
2021/09/09 06:07:28;;;;;;;35.87;22.57;;;15.60;99.90;;;;;;5208042;28;20222;-62
2021/09/09 06:10:00;;;;;;;35.77;23.17;;;15.70;99.90;;;;;;5207838;28;20221;-61
2021/09/09 06:12:34;;;;;;;35.10;22.87;;;15.90;99.90;;;;;;5208431;28;20237;-59
2021/09/09 06:15:09;;;;;;;34.27;21.50;;;16.10;99.90;;;;;;5208877;28;20190;-62
2021/09/09 06:17:41;;;;;;;26.47;18.80;;;16.20;99.90;;;;;;5207065;28;20590;-63
2021/09/09 06:20:14;;;;;;;26.50;19.17;;;16.40;99.90;;;;;;5190635;28;20226;-68
2021/09/09 06:22:47;;;;;;;26.37;19.10;;;16.50;99.90;;;;;;5207892;28;20711;-63
2021/09/09 06:25:21;;;;;;;26.60;17.33;;;16.70;99.90;;;;;;5206850;28;20202;-66
2021/09/09 06:27:53;;;;;;;26.00;16.67;;;16.90;99.90;;;;;;5206921;28;20222;-61
2021/09/09 06:30:25;;;;;;;23.90;16.50;;;17.00;99.90;;;;;;5190653;28;20209;-64
2021/09/09 06:32:59;;;;;;;24.70;15.88;;;17.20;99.90;;;;;;5207850;28;20241;-64
2021/09/09 06:35:31;;;;;;;20.55;14.48;;;17.60;99.90;;;;;;5207175;28;20206;-64
2021/09/09 06:38:06;;;;;;;26.63;14.48;;;18.90;99.90;;;;;;5207592;28;20315;-64
2021/09/09 06:40:38;;;;;;;22.23;13.85;;;20.80;99.90;;;;;;5190548;28;20225;-66
2021/09/09 06:43:10;;;;;;;18.15;12.60;;;22.70;99.90;;;;;;5206742;28;20222;-63
2021/09/09 06:45:42;;;;;;;21.00;12.40;;;24.60;99.90;;;;;;5206878;28;20248;-63
2021/09/09 06:48:15;;;;;;;19.15;12.95;;;26.30;99.90;;;;;;5206496;28;20308;-63
2021/09/09 06:50:47;;;;;;;21.30;13.32;;;27.70;99.90;;;;;;5208489;28;20217;-61
2021/09/09 06:53:22;;;;;;;18.15;12.35;;;28.90;99.90;;;;;;5208759;28;20241;-63
2021/09/09 06:55:57;;;;;;;25.08;13.38;;;29.70;99.90;;;;;;5207273;28;20201;-65
2021/09/09 06:58:29;;;;;;;19.95;12.20;;;30.50;99.90;;;;;;5208206;28;20233;-67
2021/09/09 07:01:01;;;;;;;19.20;11.93;;;31.00;97.60;;;;;;5206352;28;20249;-65
2021/09/09 07:03:33;;;;;;;18.60;11.45;;;31.50;95.30;;;;;;5206319;28;20253;-64
2021/09/09 07:06:06;;;;;;;22.55;11.48;;;32.00;93.90;;;;;;5210015;28;20206;-67
2021/09/09 07:08:43;;;;;;;15.38;10.50;;;32.20;92.20;;;;;;5212074;28;20230;-65
2021/09/09 07:11:15;;;;;;;14.25;9.48;;;32.50;90.40;;;;;;5229643;28;20519;-68
2021/09/09 07:13:47;;;;;;;19.75;9.77;;;32.80;88.30;;;;;;5244736;28;20239;-63
2021/09/09 07:16:22;;;;;;;11.63;9.57;;;33.10;86.30;;;;;;5238455;28;20209;-66
2021/09/09 07:18:54;;;;;;;17.90;10.40;;;33.30;85.00;;;;;;5247989;28;20217;-63
2021/09/09 07:21:26;;;;;;;19.67;10.73;;;33.40;83.60;;;;;;5241527;28;20232;-61
2021/09/09 07:24:01;;;;;;;18.98;10.90;;;33.40;82.70;;;;;;5237684;28;20225;-62
2021/09/09 07:26:33;;;;;;;16.58;10.27;;;33.30;81.90;;;;;;5247803;28;20207;-64
2021/09/09 07:29:05;;;;;;;15.63;10.95;;;33.40;82.60;;;;;;5232193;28;20256;-63
2021/09/09 07:31:37;;;;;;;16.20;10.25;;;33.30;81.90;;;;;;5231023;28;20229;-56
2021/09/09 07:34:09;;;;;;;15.57;11.60;;;33.00;81.50;;;;;;5247462;28;20509;-56
2021/09/09 07:36:43;;;;;;;15.90;11.65;;;32.80;81.50;;;;;;5234480;28;20235;-53
2021/09/09 07:39:15;;;;;;;19.60;12.50;;;32.60;81.50;;;;;;5244231;28;20232;-55
2021/09/09 07:41:47;;;;;;;15.52;11.73;;;32.30;82.50;;;;;;5230020;28;20308;-49
2021/09/09 07:44:20;;;;;;;16.00;11.50;;;31.80;83.10;;;;;;5230467;28;20229;-50
2021/09/09 07:46:51;;;;;;;14.30;10.93;;;31.20;83.60;;;;;;5232782;28;20205;-52
2021/09/09 07:49:23;;;;;;;18.20;11.60;;;30.30;84.60;;;;;;5255878;28;20239;-53
2021/09/09 07:51:55;;;;;;;13.07;10.70;;;29.40;86.20;;;;;;5238642;28;20206;-54
2021/09/09 07:54:27;;;;;;;14.00;10.05;;;28.40;87.40;;;;;;5246771;28;20263;-55
2021/09/09 07:56:59;;;;;;;17.05;11.82;;;27.70;89.70;;;;;;5231778;28;20186;-53
2021/09/09 07:59:31;;;;;;;13.63;10.45;;;27.00;90.40;;;;;;5241249;28;20237;-53
2021/09/09 08:02:03;;;;;;;13.70;10.77;;;26.40;91.40;;;;;;5247103;28;20524;-53
2021/09/09 08:04:35;;;;;;;14.35;10.75;;;26.00;92.20;;;;;;5232939;28;20206;-52
2021/09/09 08:07:07;;;;;;;15.52;11.10;;;25.70;93.20;;;;;;5227634;28;20217;-58
2021/09/09 08:09:39;;;;;;;16.33;11.20;;;25.20;93.60;;;;;;5232455;28;20557;-47
2021/09/09 08:12:11;;;;;;;16.85;10.63;;;25.00;94.40;;;;;;5227289;28;20237;-48
2021/09/09 08:14:43;;;;;;;14.80;10.45;;;24.80;94.80;;;;;;5241266;28;20201;-57
2021/09/09 08:17:15;;;;;;;16.17;10.70;;;24.60;95.10;;;;;;5220353;28;20201;-51
2021/09/09 08:19:49;;;;;;;16.45;9.88;;;24.50;95.10;;;;;;5238617;28;20304;-56
2021/09/09 08:22:21;;;;;;;14.07;9.52;;;24.40;94.60;;;;;;5246620;28;20562;-60
2021/09/09 08:24:54;;;;;;;12.63;9.27;;;24.40;94.80;;;;;;5234848;28;20212;-55
2021/09/09 08:27:30;;;;;;;12.95;8.85;;;24.40;95.20;;;;;;5231128;28;20210;-53
2021/09/09 08:30:06;;;;;;;12.52;8.98;;;24.40;94.10;;;;;;5245351;28;20213;-54
2021/09/09 08:32:41;;;;;;;11.02;7.63;;;24.40;94.10;;;;;;5234584;28;20196;-49
2021/09/09 08:35:13;;;;;;;12.55;7.97;;;24.50;93.70;;;;;;5237351;28;20530;-50
2021/09/09 08:37:45;;;;;;;11.45;7.93;;;24.60;93.60;;;;;;5214629;28;20206;-49
2021/09/09 08:40:20;;;;;;;14.45;8.45;;;24.70;93.60;;;;;;5244955;28;20212;-52
2021/09/09 08:42:54;;;;;;;10.55;7.25;;;24.80;93.40;;;;;;5225701;28;20204;-51
2021/09/09 08:45:26;;;;;;;11.60;7.57;;;24.90;92.80;;;;;;5241370;28;20213;-51
2021/09/09 08:48:03;;;;;;;10.57;7.30;;;24.90;92.30;;;;;;5229914;28;20221;-48
2021/09/09 08:50:35;;;;;;;8.68;6.65;;;24.90;91.10;;;;;;5246547;28;20220;-50
2021/09/09 08:53:09;;;;;;;12.40;6.93;;;24.90;90.40;;;;;;5228752;28;20544;-50
2021/09/09 08:55:43;;;;;;;8.40;6.55;;;24.90;90.30;;;;;;5250732;28;20215;-48
2021/09/09 08:58:16;;;;;;;8.65;6.30;;;24.90;90.30;;;;;;5234678;28;20288;-52
2021/09/09 09:01:03;;;;;;;8.50;6.40;;;24.90;90.40;;;;;;5241733;28;20224;-51
2021/09/09 09:03:55;;;;;;;11.90;6.68;;;24.90;90.10;;;;;;5229797;28;20574;-49
2021/09/09 09:06:30;;;;;;;9.25;6.60;;;24.90;89.30;;;;;;5234597;28;20209;-46
2021/09/09 09:09:10;;;;;;;10.00;6.53;;;24.90;89.10;;;;;;5216541;28;20216;-53
2021/09/09 09:11:47;;;;;;;11.82;7.13;;;24.90;89.70;;;;;;5241573;28;20217;-48
2021/09/09 09:14:25;;;;;;;10.55;6.72;;;25.00;89.00;;;;;;5249732;28;20192;-52
2021/09/09 09:17:00;;;;;;;12.30;6.57;;;24.90;88.10;;;;;;5232035;28;20200;-51
2021/09/09 09:19:38;;;;;;;8.07;6.20;;;24.90;89.10;;;;;;5239547;28;20590;-52
2021/09/09 09:22:16;;;;;;;8.57;5.15;;;24.80;88.70;;;;;;5230994;28;20201;-51
2021/09/09 09:24:50;;;;;;;8.07;5.20;;;24.80;88.70;;;;;;5245475;28;20212;-50
2021/09/09 09:27:22;;;;;;;9.40;5.97;;;24.80;88.50;;;;;;5230829;28;20219;-49
2021/09/09 09:30:09;;;;;;;7.43;5.65;;;24.90;88.30;;;;;;5241557;28;20197;-50
2021/09/09 09:32:49;;;;;;;11.95;6.10;;;24.80;87.30;;;;;;5242634;28;20635;-50
2021/09/09 09:35:24;;;;;;;9.00;6.28;;;24.90;88.30;;;;;;5241599;28;20185;-49
2021/09/09 09:38:02;;;;;;;9.93;5.85;;;24.80;88.00;;;;;;5240688;28;20226;-50
2021/09/09 09:40:42;;;;;;;10.05;6.40;;;24.90;87.70;;;;;;5243864;28;20204;-48
2021/09/09 09:43:18;;;;;;;7.18;5.50;;;24.90;85.80;;;;;;5230616;28;20228;-53
2021/09/09 09:45:54;;;;;;;11.13;6.65;;;24.90;87.50;;;;;;5242340;28;20208;-52
2021/09/09 09:48:28;;;;;;;8.93;6.15;;;25.00;86.90;;;;;;5231987;28;20225;-49
2021/09/09 09:51:02;;;;;;;11.32;5.88;;;25.00;85.30;;;;;;5235219;28;20216;-47
2021/09/09 09:53:34;;;;;;;12.82;5.82;;;24.90;86.60;;;;;;5238122;28;20241;-50
2021/09/09 09:56:06;;;;;;;8.07;5.53;;;24.90;87.00;;;;;;5228901;28;20198;-47
2021/09/09 09:58:38;;;;;;;8.02;5.90;;;24.90;86.50;;;;;;5229257;28;20220;-54
2021/09/09 10:01:13;;;;;;;9.38;5.88;;;25.00;86.50;;;;;;5229194;28;20232;-51
2021/09/09 10:03:45;;;;;;;9.70;5.90;;;24.80;86.60;;;;;;5231334;28;20197;-50
2021/09/09 10:06:37;;;;;;;9.48;6.15;;;24.80;86.10;;;;;;5229055;28;20259;-50
2021/09/09 10:09:18;;;;;;;10.15;6.05;;;24.70;85.30;;;;;;5240050;28;20640;-52
2021/09/09 10:11:51;;;;;;;10.48;5.90;;;24.70;86.70;;;;;;5228807;28;20236;-51
2021/09/09 10:14:25;;;;;;;9.77;6.32;;;24.80;87.40;;;;;;5230689;28;20228;-50
2021/09/09 10:16:58;;;;;;;10.02;6.55;;;24.80;86.80;;;;;;5233312;28;20189;-57
2021/09/09 10:19:33;;;;;;;9.98;5.85;;;24.80;87.60;;;;;;5229532;28;20243;-48
2021/09/09 10:22:10;;;;;;;7.47;6.15;;;24.80;86.80;;;;;;5233483;28;20299;-47
2021/09/09 10:25:03;;;;;;;7.78;5.88;;;24.80;86.80;;;;;;5237722;28;20224;-48
2021/09/09 10:27:45;;;;;;;10.65;5.60;;;24.80;86.50;;;;;;5238226;28;20209;-49
2021/09/09 10:30:18;;;;;;;9.35;5.93;;;24.90;88.50;;;;;;5260337;28;20235;-56
2021/09/09 10:32:55;;;;;;;11.00;5.97;;;24.90;87.80;;;;;;5216537;28;20213;-52
2021/09/09 10:35:30;;;;;;;12.32;7.05;;;24.90;87.10;;;;;;5235385;28;20311;-50
2021/09/09 10:38:28;;;;;;;8.85;6.20;;;24.80;86.40;;;;;;5227348;28;20197;-52
2021/09/09 10:41:03;;;;;;;13.27;6.07;;;24.80;86.50;;;;;;5219300;28;20225;-47
2021/09/09 10:43:37;;;;;;;7.70;5.72;;;24.70;84.70;;;;;;5239467;28;20208;-52
2021/09/09 10:46:10;;;;;;;10.70;6.25;;;24.70;85.60;;;;;;5233131;28;20220;-54
2021/09/09 10:48:47;;;;;;;12.13;6.25;;;24.80;85.40;;;;;;5240307;28;20207;-49
2021/09/09 10:51:22;;;;;;;7.82;5.57;;;24.80;85.10;;;;;;5240144;28;20323;-48
2021/09/09 10:53:58;;;;;;;12.75;6.53;;;24.70;85.10;;;;;;5241295;28;20193;-53
2021/09/09 10:56:35;;;;;;;17.50;6.85;;;24.70;85.80;;;;;;5231171;28;20280;-50
2021/09/09 10:59:13;;;;;;;10.95;6.00;;;24.80;86.80;;;;;;5234674;28;20235;-50
2021/09/09 11:01:47;;;;;;;12.65;6.30;;;24.80;86.60;;;;;;5236552;28;20244;-48
2021/09/09 11:04:37;;;;;;;9.45;5.63;;;24.80;86.20;;;;;;5228567;28;20287;-52
2021/09/09 11:07:27;;;;;;;8.60;4.85;;;24.80;82.20;;;;;;5227949;28;20555;-52
2021/09/09 11:10:04;;;;;;;10.18;5.47;;;24.80;80.10;;;;;;5228266;28;20533;-45
2021/09/09 11:12:43;;;;;;;8.98;5.35;;;24.70;80.30;;;;;;5228057;28;20240;-46
2021/09/09 11:15:15;;;;;;;7.22;5.15;;;24.70;81.10;;;;;;5226754;28;20205;-52
2021/09/09 11:17:56;;;;;;;10.70;6.18;;;24.70;82.50;;;;;;5225978;28;20237;-48
2021/09/09 11:20:29;;;;;;;11.77;6.35;;;24.80;83.60;;;;;;5207461;28;20218;-54
2021/09/09 11:23:11;;;;;;;9.25;5.50;;;24.80;84.40;;;;;;5207579;28;20541;-50
2021/09/09 11:25:43;;;;;;;8.25;5.72;;;24.90;82.70;;;;;;5225040;28;20201;-50
2021/09/09 11:28:17;;;;;;;9.85;5.78;;;24.80;80.50;;;;;;5210322;28;20238;-49
2021/09/09 11:31:26;;;;;;;8.80;5.88;;;24.80;81.50;;;;;;5227084;28;20641;-51
2021/09/09 11:33:59;;;;;;;9.57;5.20;;;24.80;82.40;;;;;;5225637;28;20209;-50
2021/09/09 11:36:47;;;;;;;8.65;5.82;;;24.90;82.80;;;;;;5227239;28;20216;-46
2021/09/09 11:39:24;;;;;;;8.85;5.03;;;25.00;83.30;;;;;;5208490;28;20215;-53
2021/09/09 11:41:56;;;;;;;8.10;5.38;;;25.00;80.60;;;;;;5206953;28;20210;-54
2021/09/09 11:44:28;;;;;;;8.23;5.53;;;25.10;80.00;;;;;;5208703;28;20476;-52
2021/09/09 11:47:20;;;;;;;9.90;5.13;;;25.10;79.70;;;;;;5227567;28;20673;-52
2021/09/09 11:50:06;;;;;;;7.53;5.32;;;25.10;78.50;;;;;;5226373;28;20194;-45
2021/09/09 11:52:40;;;;;;;7.05;5.50;;;25.10;78.10;;;;;;5231353;28;20239;-50
2021/09/09 11:55:15;;;;;;;11.73;5.47;;;25.10;79.30;;;;;;5231936;28;20275;-53
2021/09/09 11:57:47;;;;;;;10.32;5.00;;;25.10;79.50;;;;;;5230482;28;20225;-53
2021/09/09 12:00:19;;;;;;;15.82;6.38;;;25.20;80.40;;;;;;5231192;28;20252;-47
2021/09/09 12:02:54;;;;;;;10.63;6.03;;;25.20;80.00;;;;;;5231778;28;20600;-52
2021/09/09 12:05:30;;;;;;;9.13;5.57;;;25.20;79.80;;;;;;5230780;28;20621;-50
2021/09/09 12:08:06;;;;;;;10.50;5.78;;;25.30;79.60;;;;;;5231543;28;20212;-49
2021/09/09 12:10:38;;;;;;;9.55;5.18;;;25.30;78.70;;;;;;5231391;28;20221;-51
2021/09/09 12:13:33;;;;;;;10.73;5.25;;;25.40;79.20;;;;;;5230713;28;20316;-52
2021/09/09 12:16:33;;;;;;;10.93;5.40;;;25.40;79.60;;;;;;5230794;28;20209;-58
2021/09/09 12:19:06;;;;;;;7.63;4.93;;;25.40;79.00;;;;;;5231298;28;20246;-51
2021/09/09 12:21:52;;;;;;;8.30;5.68;;;25.50;78.70;;;;;;5230228;28;20652;-48
2021/09/09 12:24:32;;;;;;;12.02;5.50;;;25.60;78.70;;;;;;5231020;28;20324;-53
2021/09/09 12:27:04;;;;;;;9.88;5.22;;;25.60;78.00;;;;;;5230864;28;20208;-52
2021/09/09 12:29:38;;;;;;;7.75;4.80;;;25.70;77.50;;;;;;5229757;28;20230;-53
2021/09/09 12:32:28;;;;;;;8.52;5.18;;;25.70;77.20;;;;;;5231031;28;20572;-59
2021/09/09 12:35:33;;;;;;;8.63;5.05;;;25.70;76.80;;;;;;5230825;28;20234;-54
2021/09/09 12:38:12;;;;;;;7.38;4.88;;;25.60;76.90;;;;;;5229336;28;20584;-52
2021/09/09 12:40:46;;;;;;;7.03;5.25;;;25.60;76.70;;;;;;5230954;28;20212;-53
2021/09/09 12:43:50;;;;;;;8.45;4.80;;;25.50;78.30;;;;;;5230603;28;20205;-49
2021/09/09 12:46:31;;;;;;;10.20;4.85;;;25.60;77.40;;;;;;5230312;28;20629;-52
2021/09/09 12:49:06;;;;;;;12.60;4.47;;;25.60;76.30;;;;;;5232983;28;20204;-50
2021/09/09 12:51:46;;;;;;;10.18;4.75;;;25.70;76.90;;;;;;5225357;28;20232;-50
2021/09/09 12:54:19;;;;;;;7.53;4.60;;;25.70;76.80;;;;;;5235248;28;20189;-52
2021/09/09 12:56:54;;;;;;;7.50;4.13;;;25.80;76.30;;;;;;5242431;28;20197;-56
2021/09/09 12:59:27;;;;;;;9.13;4.63;;;25.80;76.50;;;;;;5249490;28;20235;-55
2021/09/09 13:01:59;;;;;;;11.90;5.00;;;25.80;75.70;;;;;;5234895;28;20206;-53
2021/09/09 13:04:32;;;;;;;6.35;4.00;;;25.90;76.20;;;;;;5236004;28;20593;-54
2021/09/09 13:07:06;;;;;;;11.07;4.22;;;25.80;74.70;;;;;;5232938;28;20284;-52
2021/09/09 13:09:38;;;;;;;6.53;4.03;;;25.80;75.40;;;;;;5235082;28;20212;-54